sensor_id;sensor_type;location;lat;lon;timestamp;temperature;humidity
318;DHT22;146;53.448;10.228;2022-09-09T00:01:51;15.80;5.60
318;DHT22;146;53.448;10.228;2022-09-09T00:04:26;15.90;5.80
318;DHT22;146;53.448;10.228;2022-09-09T00:07:01;16.00;6.00
318;DHT22;146;53.448;10.228;2022-09-09T00:09:33;16.00;6.00
318;DHT22;146;53.448;10.228;2022-09-09T00:12:11;16.00;6.10
318;DHT22;146;53.448;10.228;2022-09-09T00:14:43;16.00;6.00
318;DHT22;146;53.448;10.228;2022-09-09T00:17:16;16.00;6.00
318;DHT22;146;53.448;10.228;2022-09-09T00:19:50;16.00;6.10
318;DHT22;146;53.448;10.228;2022-09-09T00:22:20;16.10;6.40
318;DHT22;146;53.448;10.228;2022-09-09T00:24:51;16.10;6.50
318;DHT22;146;53.448;10.228;2022-09-09T00:27:27;16.10;6.60
318;DHT22;146;53.448;10.228;2022-09-09T00:30:00;16.10;6.70
318;DHT22;146;53.448;10.228;2022-09-09T00:32:31;16.20;6.70
318;DHT22;146;53.448;10.228;2022-09-09T00:35:04;16.20;6.70
318;DHT22;146;53.448;10.228;2022-09-09T00:37:38;16.20;6.60
318;DHT22;146;53.448;10.228;2022-09-09T00:40:18;16.30;6.60
318;DHT22;146;53.448;10.228;2022-09-09T00:42:51;16.20;6.60
318;DHT22;146;53.448;10.228;2022-09-09T00:45:40;16.20;6.50
318;DHT22;146;53.448;10.228;2022-09-09T00:48:10;16.20;6.40
318;DHT22;146;53.448;10.228;2022-09-09T00:50:45;16.20;6.50
318;DHT22;146;53.448;10.228;2022-09-09T00:53:29;16.20;6.40
318;DHT22;146;53.448;10.228;2022-09-09T00:56:06;16.20;6.20
318;DHT22;146;53.448;10.228;2022-09-09T00:58:36;16.20;6.50
318;DHT22;146;53.448;10.228;2022-09-09T01:01:05;16.10;6.60
318;DHT22;146;53.448;10.228;2022-09-09T01:03:36;16.10;6.80
318;DHT22;146;53.448;10.228;2022-09-09T01:06:13;16.10;7.20
318;DHT22;146;53.448;10.228;2022-09-09T01:11:48;16.10;7.20
318;DHT22;146;53.448;10.228;2022-09-09T01:14:29;16.20;7.10
318;DHT22;146;53.448;10.228;2022-09-09T01:17:00;16.20;7.20
318;DHT22;146;53.448;10.228;2022-09-09T01:19:37;16.20;7.20
318;DHT22;146;53.448;10.228;2022-09-09T01:22:10;16.20;7.20
318;DHT22;146;53.448;10.228;2022-09-09T01:24:48;16.20;7.20
318;DHT22;146;53.448;10.228;2022-09-09T01:27:19;16.20;7.10
318;DHT22;146;53.448;10.228;2022-09-09T01:29:47;16.10;7.10
318;DHT22;146;53.448;10.228;2022-09-09T01:32:40;16.20;7.00
318;DHT22;146;53.448;10.228;2022-09-09T01:35:11;16.10;7.00
318;DHT22;146;53.448;10.228;2022-09-09T01:37:38;16.10;6.90
318;DHT22;146;53.448;10.228;2022-09-09T01:40:06;16.10;6.70
318;DHT22;146;53.448;10.228;2022-09-09T01:42:34;16.10;6.70
318;DHT22;146;53.448;10.228;2022-09-09T01:45:01;16.00;6.60
318;DHT22;146;53.448;10.228;2022-09-09T01:47:29;16.10;6.70
318;DHT22;146;53.448;10.228;2022-09-09T01:49:55;16.10;6.60
318;DHT22;146;53.448;10.228;2022-09-09T01:52:22;16.10;6.50
318;DHT22;146;53.448;10.228;2022-09-09T01:54:49;16.00;6.50
318;DHT22;146;53.448;10.228;2022-09-09T01:57:20;16.00;6.40
318;DHT22;146;53.448;10.228;2022-09-09T01:59:56;16.00;6.30
318;DHT22;146;53.448;10.228;2022-09-09T02:02:27;16.00;6.20
318;DHT22;146;53.448;10.228;2022-09-09T02:05:03;16.00;6.10
318;DHT22;146;53.448;10.228;2022-09-09T02:07:39;16.00;6.00
318;DHT22;146;53.448;10.228;2022-09-09T02:10:11;16.00;6.00
318;DHT22;146;53.448;10.228;2022-09-09T02:12:42;15.90;5.90
318;DHT22;146;53.448;10.228;2022-09-09T02:15:22;15.90;5.90
318;DHT22;146;53.448;10.228;2022-09-09T02:17:52;15.90;5.90
318;DHT22;146;53.448;10.228;2022-09-09T02:20:19;15.90;5.80
318;DHT22;146;53.448;10.228;2022-09-09T02:22:49;15.90;5.80
318;DHT22;146;53.448;10.228;2022-09-09T02:25:19;15.90;5.60
318;DHT22;146;53.448;10.228;2022-09-09T02:27:49;15.90;5.70
318;DHT22;146;53.448;10.228;2022-09-09T02:30:19;15.80;5.50
318;DHT22;146;53.448;10.228;2022-09-09T02:32:48;15.80;5.50
318;DHT22;146;53.448;10.228;2022-09-09T02:35:19;15.80;5.30
318;DHT22;146;53.448;10.228;2022-09-09T02:37:46;15.80;5.20
318;DHT22;146;53.448;10.228;2022-09-09T02:40:14;15.80;5.20
318;DHT22;146;53.448;10.228;2022-09-09T02:42:43;15.80;5.10
318;DHT22;146;53.448;10.228;2022-09-09T02:45:11;15.70;5.10
318;DHT22;146;53.448;10.228;2022-09-09T02:47:45;15.70;5.20
318;DHT22;146;53.448;10.228;2022-09-09T02:50:18;15.60;5.10
318;DHT22;146;53.448;10.228;2022-09-09T02:52:54;15.60;5.10
318;DHT22;146;53.448;10.228;2022-09-09T02:55:32;15.60;5.10
318;DHT22;146;53.448;10.228;2022-09-09T02:58:03;15.50;5.20
318;DHT22;146;53.448;10.228;2022-09-09T03:00:32;15.50;5.30
318;DHT22;146;53.448;10.228;2022-09-09T03:03:03;15.50;5.20
318;DHT22;146;53.448;10.228;2022-09-09T03:05:30;15.50;5.30
318;DHT22;146;53.448;10.228;2022-09-09T03:07:57;15.50;5.30
318;DHT22;146;53.448;10.228;2022-09-09T03:10:24;15.50;5.20
318;DHT22;146;53.448;10.228;2022-09-09T03:12:50;15.50;5.30
318;DHT22;146;53.448;10.228;2022-09-09T03:15:17;15.40;5.10
318;DHT22;146;53.448;10.228;2022-09-09T03:17:44;15.40;5.20
318;DHT22;146;53.448;10.228;2022-09-09T03:20:12;15.40;5.20
318;DHT22;146;53.448;10.228;2022-09-09T03:22:38;15.40;5.20
318;DHT22;146;53.448;10.228;2022-09-09T03:25:06;15.40;5.20
318;DHT22;146;53.448;10.228;2022-09-09T03:27:33;15.30;5.10
318;DHT22;146;53.448;10.228;2022-09-09T03:30:00;15.40;5.00
318;DHT22;146;53.448;10.228;2022-09-09T03:32:28;15.40;5.10
318;DHT22;146;53.448;10.228;2022-09-09T03:34:56;15.40;5.00
318;DHT22;146;53.448;10.228;2022-09-09T03:37:25;15.40;4.90
318;DHT22;146;53.448;10.228;2022-09-09T03:39:52;15.30;4.80
318;DHT22;146;53.448;10.228;2022-09-09T03:42:20;15.30;4.70
318;DHT22;146;53.448;10.228;2022-09-09T03:44:47;15.30;4.70
318;DHT22;146;53.448;10.228;2022-09-09T03:47:15;15.30;4.70
318;DHT22;146;53.448;10.228;2022-09-09T03:49:42;15.20;4.70
318;DHT22;146;53.448;10.228;2022-09-09T03:52:09;15.20;4.80
318;DHT22;146;53.448;10.228;2022-09-09T03:54:37;15.30;4.80
318;DHT22;146;53.448;10.228;2022-09-09T03:57:04;15.20;4.70
318;DHT22;146;53.448;10.228;2022-09-09T03:59:31;15.20;4.70
318;DHT22;146;53.448;10.228;2022-09-09T04:01:58;15.20;4.70
318;DHT22;146;53.448;10.228;2022-09-09T04:04:25;15.20;4.80
318;DHT22;146;53.448;10.228;2022-09-09T04:06:52;15.20;4.80
318;DHT22;146;53.448;10.228;2022-09-09T04:09:19;15.20;4.80
318;DHT22;146;53.448;10.228;2022-09-09T04:11:48;15.20;4.80
318;DHT22;146;53.448;10.228;2022-09-09T04:14:15;15.10;4.70
318;DHT22;146;53.448;10.228;2022-09-09T04:16:42;15.10;4.70
318;DHT22;146;53.448;10.228;2022-09-09T04:19:10;15.10;4.60
318;DHT22;146;53.448;10.228;2022-09-09T04:21:38;15.10;4.50
318;DHT22;146;53.448;10.228;2022-09-09T04:24:06;15.00;4.50
318;DHT22;146;53.448;10.228;2022-09-09T04:26:33;15.00;4.70
318;DHT22;146;53.448;10.228;2022-09-09T04:29:01;15.00;4.70
318;DHT22;146;53.448;10.228;2022-09-09T04:31:28;15.00;5.00
318;DHT22;146;53.448;10.228;2022-09-09T04:33:55;15.00;5.10
318;DHT22;146;53.448;10.228;2022-09-09T04:36:22;15.10;5.30
318;DHT22;146;53.448;10.228;2022-09-09T04:38:49;15.10;5.30
318;DHT22;146;53.448;10.228;2022-09-09T04:41:16;15.10;5.30
318;DHT22;146;53.448;10.228;2022-09-09T04:43:42;15.20;5.20
318;DHT22;146;53.448;10.228;2022-09-09T04:46:11;15.20;5.10
318;DHT22;146;53.448;10.228;2022-09-09T04:48:38;15.20;5.00
318;DHT22;146;53.448;10.228;2022-09-09T04:51:06;15.20;5.00
318;DHT22;146;53.448;10.228;2022-09-09T04:53:33;15.20;5.00
318;DHT22;146;53.448;10.228;2022-09-09T04:56:04;15.30;5.20
318;DHT22;146;53.448;10.228;2022-09-09T04:58:31;15.20;5.10
318;DHT22;146;53.448;10.228;2022-09-09T05:01:06;15.30;5.10
318;DHT22;146;53.448;10.228;2022-09-09T05:03:34;15.30;5.10
318;DHT22;146;53.448;10.228;2022-09-09T05:06:06;15.30;5.00
318;DHT22;146;53.448;10.228;2022-09-09T05:08:34;15.30;5.00
318;DHT22;146;53.448;10.228;2022-09-09T05:11:01;15.30;5.00
318;DHT22;146;53.448;10.228;2022-09-09T05:13:28;15.30;5.00
318;DHT22;146;53.448;10.228;2022-09-09T05:15:57;15.30;4.90
318;DHT22;146;53.448;10.228;2022-09-09T05:18:24;15.30;5.00
318;DHT22;146;53.448;10.228;2022-09-09T05:20:52;15.30;5.00
318;DHT22;146;53.448;10.228;2022-09-09T05:23:19;15.30;5.00
318;DHT22;146;53.448;10.228;2022-09-09T05:25:55;15.30;5.10
318;DHT22;146;53.448;10.228;2022-09-09T05:28:22;15.30;5.30
318;DHT22;146;53.448;10.228;2022-09-09T05:30:55;15.30;5.40
318;DHT22;146;53.448;10.228;2022-09-09T05:33:23;15.30;5.50
318;DHT22;146;53.448;10.228;2022-09-09T05:35:57;15.40;5.50
318;DHT22;146;53.448;10.228;2022-09-09T05:38:24;15.40;5.50
318;DHT22;146;53.448;10.228;2022-09-09T05:40:52;15.40;5.50
318;DHT22;146;53.448;10.228;2022-09-09T05:43:19;15.40;5.50
318;DHT22;146;53.448;10.228;2022-09-09T05:45:46;15.40;5.60
318;DHT22;146;53.448;10.228;2022-09-09T05:48:13;15.40;5.60
318;DHT22;146;53.448;10.228;2022-09-09T05:50:41;15.40;5.70
318;DHT22;146;53.448;10.228;2022-09-09T05:53:09;15.50;5.90
318;DHT22;146;53.448;10.228;2022-09-09T05:55:36;15.50;6.00
318;DHT22;146;53.448;10.228;2022-09-09T05:58:03;15.60;6.10
318;DHT22;146;53.448;10.228;2022-09-09T06:00:30;15.60;6.10
318;DHT22;146;53.448;10.228;2022-09-09T06:02:57;15.60;6.30
318;DHT22;146;53.448;10.228;2022-09-09T06:05:24;15.70;6.30
318;DHT22;146;53.448;10.228;2022-09-09T06:07:53;15.60;6.20
318;DHT22;146;53.448;10.228;2022-09-09T06:10:21;15.70;6.20
318;DHT22;146;53.448;10.228;2022-09-09T06:12:48;15.70;6.40
318;DHT22;146;53.448;10.228;2022-09-09T06:15:15;15.70;6.30
318;DHT22;146;53.448;10.228;2022-09-09T06:17:42;15.80;6.30
318;DHT22;146;53.448;10.228;2022-09-09T06:20:11;15.80;6.30
318;DHT22;146;53.448;10.228;2022-09-09T06:25:14;15.90;6.20
318;DHT22;146;53.448;10.228;2022-09-09T06:27:42;16.00;6.20
318;DHT22;146;53.448;10.228;2022-09-09T06:30:10;16.00;5.90
318;DHT22;146;53.448;10.228;2022-09-09T06:32:37;16.00;6.10
318;DHT22;146;53.448;10.228;2022-09-09T06:35:05;16.10;6.10
318;DHT22;146;53.448;10.228;2022-09-09T06:37:33;16.10;6.00
318;DHT22;146;53.448;10.228;2022-09-09T06:39:59;16.20;6.20
318;DHT22;146;53.448;10.228;2022-09-09T06:42:26;16.40;5.60
318;DHT22;146;53.448;10.228;2022-09-09T06:44:54;16.30;5.70
318;DHT22;146;53.448;10.228;2022-09-09T06:47:21;16.30;5.60
318;DHT22;146;53.448;10.228;2022-09-09T06:49:48;16.20;5.60
318;DHT22;146;53.448;10.228;2022-09-09T06:52:14;16.20;5.80
318;DHT22;146;53.448;10.228;2022-09-09T06:54:43;16.30;5.90
318;DHT22;146;53.448;10.228;2022-09-09T06:57:10;16.40;5.90
318;DHT22;146;53.448;10.228;2022-09-09T06:59:37;16.40;6.00
318;DHT22;146;53.448;10.228;2022-09-09T07:02:05;16.50;6.20
318;DHT22;146;53.448;10.228;2022-09-09T07:04:32;16.60;6.50
318;DHT22;146;53.448;10.228;2022-09-09T07:06:58;16.70;6.70
318;DHT22;146;53.448;10.228;2022-09-09T07:09:26;16.80;6.90
318;DHT22;146;53.448;10.228;2022-09-09T07:11:54;16.80;6.80
318;DHT22;146;53.448;10.228;2022-09-09T07:14:22;16.90;6.80
318;DHT22;146;53.448;10.228;2022-09-09T07:16:49;17.10;6.90
318;DHT22;146;53.448;10.228;2022-09-09T07:19:17;17.10;6.20
318;DHT22;146;53.448;10.228;2022-09-09T07:21:44;17.10;6.00
318;DHT22;146;53.448;10.228;2022-09-09T07:24:10;17.10;6.40
318;DHT22;146;53.448;10.228;2022-09-09T07:26:38;17.20;6.40
318;DHT22;146;53.448;10.228;2022-09-09T07:29:05;17.20;6.30
318;DHT22;146;53.448;10.228;2022-09-09T07:31:34;17.20;5.90
318;DHT22;146;53.448;10.228;2022-09-09T07:34:02;17.30;5.80
318;DHT22;146;53.448;10.228;2022-09-09T07:36:32;17.30;5.60
318;DHT22;146;53.448;10.228;2022-09-09T07:39:00;17.30;5.80
318;DHT22;146;53.448;10.228;2022-09-09T07:41:30;17.30;6.10
318;DHT22;146;53.448;10.228;2022-09-09T07:43:57;17.20;6.30
318;DHT22;146;53.448;10.228;2022-09-09T07:46:25;17.20;7.10
318;DHT22;146;53.448;10.228;2022-09-09T07:48:54;17.20;7.70
318;DHT22;146;53.448;10.228;2022-09-09T07:51:23;17.30;7.60
318;DHT22;146;53.448;10.228;2022-09-09T07:53:56;17.30;7.50
318;DHT22;146;53.448;10.228;2022-09-09T07:56:23;17.20;7.10
318;DHT22;146;53.448;10.228;2022-09-09T07:58:51;17.20;7.00
318;DHT22;146;53.448;10.228;2022-09-09T08:01:21;17.30;7.40
318;DHT22;146;53.448;10.228;2022-09-09T08:03:53;17.40;7.30
318;DHT22;146;53.448;10.228;2022-09-09T08:06:20;17.40;7.20
318;DHT22;146;53.448;10.228;2022-09-09T08:08:50;17.50;7.20
318;DHT22;146;53.448;10.228;2022-09-09T08:11:18;17.50;7.10
318;DHT22;146;53.448;10.228;2022-09-09T08:13:45;17.50;7.10
318;DHT22;146;53.448;10.228;2022-09-09T08:16:14;17.60;7.00
318;DHT22;146;53.448;10.228;2022-09-09T08:18:42;17.70;6.80
318;DHT22;146;53.448;10.228;2022-09-09T08:21:11;17.70;6.80
318;DHT22;146;53.448;10.228;2022-09-09T08:23:39;17.90;6.70
318;DHT22;146;53.448;10.228;2022-09-09T08:26:09;17.90;6.50
318;DHT22;146;53.448;10.228;2022-09-09T08:28:38;17.90;6.10
318;DHT22;146;53.448;10.228;2022-09-09T08:31:11;17.90;5.90
318;DHT22;146;53.448;10.228;2022-09-09T08:33:38;17.90;5.90
318;DHT22;146;53.448;10.228;2022-09-09T08:36:08;18.00;5.70
318;DHT22;146;53.448;10.228;2022-09-09T08:38:36;18.10;5.70
318;DHT22;146;53.448;10.228;2022-09-09T08:41:15;18.10;5.80
318;DHT22;146;53.448;10.228;2022-09-09T08:43:50;18.20;5.60
318;DHT22;146;53.448;10.228;2022-09-09T08:46:25;18.20;5.80
318;DHT22;146;53.448;10.228;2022-09-09T08:48:58;18.30;5.70
318;DHT22;146;53.448;10.228;2022-09-09T08:51:29;18.40;5.40
318;DHT22;146;53.448;10.228;2022-09-09T08:53:59;18.50;4.90
318;DHT22;146;53.448;10.228;2022-09-09T08:56:27;18.40;4.50
318;DHT22;146;53.448;10.228;2022-09-09T08:58:56;18.50;4.70
318;DHT22;146;53.448;10.228;2022-09-09T09:01:44;18.50;4.30
318;DHT22;146;53.448;10.228;2022-09-09T09:04:25;18.50;3.80
318;DHT22;146;53.448;10.228;2022-09-09T09:07:02;18.60;3.90
318;DHT22;146;53.448;10.228;2022-09-09T09:09:38;18.50;3.80
318;DHT22;146;53.448;10.228;2022-09-09T09:12:15;18.50;4.50
318;DHT22;146;53.448;10.228;2022-09-09T09:14:45;18.60;4.60
318;DHT22;146;53.448;10.228;2022-09-09T09:17:14;18.70;4.60
318;DHT22;146;53.448;10.228;2022-09-09T09:19:43;18.70;4.90
318;DHT22;146;53.448;10.228;2022-09-09T09:22:16;18.70;5.40
318;DHT22;146;53.448;10.228;2022-09-09T09:24:50;18.80;5.70
318;DHT22;146;53.448;10.228;2022-09-09T09:27:24;18.70;4.60
318;DHT22;146;53.448;10.228;2022-09-09T09:29:56;18.80;5.50
318;DHT22;146;53.448;10.228;2022-09-09T09:32:24;19.00;5.70
318;DHT22;146;53.448;10.228;2022-09-09T09:34:55;19.00;4.90
318;DHT22;146;53.448;10.228;2022-09-09T09:37:27;19.10;4.70
318;DHT22;146;53.448;10.228;2022-09-09T09:39:54;19.20;3.90
318;DHT22;146;53.448;10.228;2022-09-09T09:42:22;19.20;3.20
318;DHT22;146;53.448;10.228;2022-09-09T09:44:49;19.20;2.30
318;DHT22;146;53.448;10.228;2022-09-09T09:47:18;19.20;2.20
318;DHT22;146;53.448;10.228;2022-09-09T09:49:55;19.20;1.90
318;DHT22;146;53.448;10.228;2022-09-09T09:52:25;19.20;2.40
318;DHT22;146;53.448;10.228;2022-09-09T09:54:54;19.20;2.80
318;DHT22;146;53.448;10.228;2022-09-09T09:57:25;19.20;3.90
318;DHT22;146;53.448;10.228;2022-09-09T10:00:02;19.40;4.00
318;DHT22;146;53.448;10.228;2022-09-09T10:02:39;19.60;3.10
318;DHT22;146;53.448;10.228;2022-09-09T10:05:13;19.50;1.50
318;DHT22;146;53.448;10.228;2022-09-09T10:07:40;19.50;1.40
318;DHT22;146;53.448;10.228;2022-09-09T10:10:13;19.40;1.00
318;DHT22;146;53.448;10.228;2022-09-09T10:12:55;19.50;1.00
318;DHT22;146;53.448;10.228;2022-09-09T10:15:32;19.50;1.00
318;DHT22;146;53.448;10.228;2022-09-09T10:18:13;19.40;1.00
318;DHT22;146;53.448;10.228;2022-09-09T10:20:46;19.20;1.50
318;DHT22;146;53.448;10.228;2022-09-09T10:23:29;19.20;2.00
318;DHT22;146;53.448;10.228;2022-09-09T10:26:14;19.20;1.70
318;DHT22;146;53.448;10.228;2022-09-09T10:29:02;19.10;2.00
318;DHT22;146;53.448;10.228;2022-09-09T10:31:37;19.10;2.00
318;DHT22;146;53.448;10.228;2022-09-09T10:34:17;19.10;2.00
318;DHT22;146;53.448;10.228;2022-09-09T10:36:48;19.00;3.20
318;DHT22;146;53.448;10.228;2022-09-09T10:39:26;19.00;3.50
318;DHT22;146;53.448;10.228;2022-09-09T10:42:00;18.90;3.90
318;DHT22;146;53.448;10.228;2022-09-09T10:44:39;18.90;4.80
318;DHT22;146;53.448;10.228;2022-09-09T10:47:22;18.90;5.10
318;DHT22;146;53.448;10.228;2022-09-09T10:50:11;18.90;5.00
318;DHT22;146;53.448;10.228;2022-09-09T10:52:46;19.00;5.40
318;DHT22;146;53.448;10.228;2022-09-09T10:55:18;19.00;5.40
318;DHT22;146;53.448;10.228;2022-09-09T10:57:47;19.00;6.20
318;DHT22;146;53.448;10.228;2022-09-09T11:00:17;19.00;6.40
318;DHT22;146;53.448;10.228;2022-09-09T11:02:50;19.10;6.40
318;DHT22;146;53.448;10.228;2022-09-09T11:05:21;19.20;6.40
318;DHT22;146;53.448;10.228;2022-09-09T11:07:55;19.30;5.40
318;DHT22;146;53.448;10.228;2022-09-09T11:10:38;19.30;4.70
318;DHT22;146;53.448;10.228;2022-09-09T11:13:11;19.50;3.70
318;DHT22;146;53.448;10.228;2022-09-09T11:15:46;19.70;3.90
318;DHT22;146;53.448;10.228;2022-09-09T11:18:19;20.00;3.80
318;DHT22;146;53.448;10.228;2022-09-09T11:20:51;20.30;3.20
318;DHT22;146;53.448;10.228;2022-09-09T11:23:41;20.60;2.20
318;DHT22;146;53.448;10.228;2022-09-09T11:29:12;21.00;1.00
318;DHT22;146;53.448;10.228;2022-09-09T11:31:53;21.10;1.00
318;DHT22;146;53.448;10.228;2022-09-09T11:34:33;21.10;1.00
318;DHT22;146;53.448;10.228;2022-09-09T11:37:14;21.20;1.00
318;DHT22;146;53.448;10.228;2022-09-09T11:40:09;21.20;1.00
318;DHT22;146;53.448;10.228;2022-09-09T11:42:40;21.10;1.00
318;DHT22;146;53.448;10.228;2022-09-09T11:45:19;21.00;1.00
318;DHT22;146;53.448;10.228;2022-09-09T11:47:52;20.80;1.00
318;DHT22;146;53.448;10.228;2022-09-09T11:50:37;20.70;1.00
318;DHT22;146;53.448;10.228;2022-09-09T11:53:18;20.70;1.00
318;DHT22;146;53.448;10.228;2022-09-09T11:56:04;20.80;1.00
318;DHT22;146;53.448;10.228;2022-09-09T11:58:38;21.00;1.00
318;DHT22;146;53.448;10.228;2022-09-09T12:01:37;20.90;1.00
318;DHT22;146;53.448;10.228;2022-09-09T12:04:14;20.60;1.00
318;DHT22;146;53.448;10.228;2022-09-09T12:06:44;20.50;1.00
318;DHT22;146;53.448;10.228;2022-09-09T12:09:23;20.50;1.00
318;DHT22;146;53.448;10.228;2022-09-09T12:11:51;20.50;1.00
318;DHT22;146;53.448;10.228;2022-09-09T12:14:23;20.50;1.00
318;DHT22;146;53.448;10.228;2022-09-09T12:17:09;20.50;1.00
318;DHT22;146;53.448;10.228;2022-09-09T12:19:36;20.40;1.00
318;DHT22;146;53.448;10.228;2022-09-09T12:22:08;20.40;1.00
318;DHT22;146;53.448;10.228;2022-09-09T12:24:46;20.30;1.00
318;DHT22;146;53.448;10.228;2022-09-09T12:27:19;20.20;1.00
318;DHT22;146;53.448;10.228;2022-09-09T12:29:52;20.20;1.00
318;DHT22;146;53.448;10.228;2022-09-09T12:32:24;20.30;1.00
318;DHT22;146;53.448;10.228;2022-09-09T12:34:53;20.40;1.00
318;DHT22;146;53.448;10.228;2022-09-09T12:37:27;20.50;1.00
318;DHT22;146;53.448;10.228;2022-09-09T12:39:58;20.40;1.00
318;DHT22;146;53.448;10.228;2022-09-09T12:42:26;20.40;1.00
318;DHT22;146;53.448;10.228;2022-09-09T12:44:54;20.40;1.00
318;DHT22;146;53.448;10.228;2022-09-09T12:47:24;20.40;1.00
318;DHT22;146;53.448;10.228;2022-09-09T12:49:52;20.60;1.00
318;DHT22;146;53.448;10.228;2022-09-09T12:52:26;20.60;1.00
318;DHT22;146;53.448;10.228;2022-09-09T12:54:57;20.70;1.00
318;DHT22;146;53.448;10.228;2022-09-09T12:57:26;20.80;1.00
318;DHT22;146;53.448;10.228;2022-09-09T13:00:05;20.90;1.00
318;DHT22;146;53.448;10.228;2022-09-09T13:02:33;21.00;1.00
318;DHT22;146;53.448;10.228;2022-09-09T13:05:08;21.10;1.00
318;DHT22;146;53.448;10.228;2022-09-09T13:07:40;21.10;1.00
318;DHT22;146;53.448;10.228;2022-09-09T13:10:12;21.30;1.00
318;DHT22;146;53.448;10.228;2022-09-09T13:12:39;21.20;1.00
318;DHT22;146;53.448;10.228;2022-09-09T13:15:19;21.10;1.00
318;DHT22;146;53.448;10.228;2022-09-09T13:17:53;21.00;1.00
318;DHT22;146;53.448;10.228;2022-09-09T13:20:21;20.90;1.00
318;DHT22;146;53.448;10.228;2022-09-09T13:22:49;20.90;1.00
318;DHT22;146;53.448;10.228;2022-09-09T13:25:23;20.70;1.00
318;DHT22;146;53.448;10.228;2022-09-09T13:27:54;20.50;1.00
318;DHT22;146;53.448;10.228;2022-09-09T13:30:23;20.50;1.00
318;DHT22;146;53.448;10.228;2022-09-09T13:33:05;20.50;1.00
318;DHT22;146;53.448;10.228;2022-09-09T13:35:32;20.40;1.00
318;DHT22;146;53.448;10.228;2022-09-09T13:37:59;20.30;1.00
318;DHT22;146;53.448;10.228;2022-09-09T13:40:34;20.30;1.00
318;DHT22;146;53.448;10.228;2022-09-09T13:43:02;20.20;1.00
318;DHT22;146;53.448;10.228;2022-09-09T13:45:31;20.10;1.00
318;DHT22;146;53.448;10.228;2022-09-09T13:48:09;20.10;1.00
318;DHT22;146;53.448;10.228;2022-09-09T13:50:36;20.00;1.00
318;DHT22;146;53.448;10.228;2022-09-09T13:53:03;20.00;1.00
318;DHT22;146;53.448;10.228;2022-09-09T13:55:30;19.90;1.00
318;DHT22;146;53.448;10.228;2022-09-09T13:57:59;19.90;1.00
318;DHT22;146;53.448;10.228;2022-09-09T14:00:30;19.80;1.00
318;DHT22;146;53.448;10.228;2022-09-09T14:02:57;19.70;1.00
318;DHT22;146;53.448;10.228;2022-09-09T14:05:23;19.60;1.00
318;DHT22;146;53.448;10.228;2022-09-09T14:07:50;19.50;1.00
318;DHT22;146;53.448;10.228;2022-09-09T14:10:17;19.40;1.00
318;DHT22;146;53.448;10.228;2022-09-09T14:12:44;19.40;1.30
318;DHT22;146;53.448;10.228;2022-09-09T14:15:13;19.30;1.50
318;DHT22;146;53.448;10.228;2022-09-09T14:17:41;19.20;2.00
318;DHT22;146;53.448;10.228;2022-09-09T14:20:09;19.00;2.10
318;DHT22;146;53.448;10.228;2022-09-09T14:22:37;18.90;2.40
318;DHT22;146;53.448;10.228;2022-09-09T14:25:07;18.80;2.80
318;DHT22;146;53.448;10.228;2022-09-09T14:27:34;18.60;3.00
318;DHT22;146;53.448;10.228;2022-09-09T14:30:01;18.60;3.20
318;DHT22;146;53.448;10.228;2022-09-09T14:32:29;18.50;3.10
318;DHT22;146;53.448;10.228;2022-09-09T14:34:55;18.40;2.90
318;DHT22;146;53.448;10.228;2022-09-09T14:37:22;18.40;2.70
318;DHT22;146;53.448;10.228;2022-09-09T14:39:50;18.30;2.40
318;DHT22;146;53.448;10.228;2022-09-09T14:42:17;18.30;2.30
318;DHT22;146;53.448;10.228;2022-09-09T14:44:44;18.30;2.10
318;DHT22;146;53.448;10.228;2022-09-09T14:47:11;18.30;1.80
318;DHT22;146;53.448;10.228;2022-09-09T14:49:39;18.20;1.80
318;DHT22;146;53.448;10.228;2022-09-09T14:52:06;18.10;1.90
318;DHT22;146;53.448;10.228;2022-09-09T14:54:34;18.10;2.00
318;DHT22;146;53.448;10.228;2022-09-09T14:57:01;18.10;2.30
318;DHT22;146;53.448;10.228;2022-09-09T14:59:28;18.10;2.50
318;DHT22;146;53.448;10.228;2022-09-09T15:01:54;18.10;2.80
318;DHT22;146;53.448;10.228;2022-09-09T15:04:21;18.00;2.90
318;DHT22;146;53.448;10.228;2022-09-09T15:06:49;18.00;3.20
318;DHT22;146;53.448;10.228;2022-09-09T15:09:17;18.00;3.40
318;DHT22;146;53.448;10.228;2022-09-09T15:11:44;18.00;3.50
318;DHT22;146;53.448;10.228;2022-09-09T15:14:11;17.90;3.50
318;DHT22;146;53.448;10.228;2022-09-09T15:16:39;17.90;3.40
318;DHT22;146;53.448;10.228;2022-09-09T15:19:06;17.80;3.20
318;DHT22;146;53.448;10.228;2022-09-09T15:21:34;17.80;3.50
318;DHT22;146;53.448;10.228;2022-09-09T15:24:03;17.80;3.60
318;DHT22;146;53.448;10.228;2022-09-09T15:26:31;17.80;3.70
318;DHT22;146;53.448;10.228;2022-09-09T15:28:58;17.80;3.80
318;DHT22;146;53.448;10.228;2022-09-09T15:31:26;17.80;3.90
318;DHT22;146;53.448;10.228;2022-09-09T15:33:55;17.80;4.10
318;DHT22;146;53.448;10.228;2022-09-09T15:36:27;17.80;4.30
318;DHT22;146;53.448;10.228;2022-09-09T15:38:55;17.90;4.60
318;DHT22;146;53.448;10.228;2022-09-09T15:41:23;17.90;4.80
318;DHT22;146;53.448;10.228;2022-09-09T15:43:51;18.00;5.00
318;DHT22;146;53.448;10.228;2022-09-09T15:46:27;18.00;5.20
318;DHT22;146;53.448;10.228;2022-09-09T15:48:55;18.00;5.30
318;DHT22;146;53.448;10.228;2022-09-09T15:51:22;18.10;5.60
318;DHT22;146;53.448;10.228;2022-09-09T15:53:53;18.10;5.70
318;DHT22;146;53.448;10.228;2022-09-09T15:56:22;18.20;5.90
318;DHT22;146;53.448;10.228;2022-09-09T15:58:50;18.20;5.90
318;DHT22;146;53.448;10.228;2022-09-09T16:01:17;18.20;6.10
318;DHT22;146;53.448;10.228;2022-09-09T16:03:45;18.30;6.20
318;DHT22;146;53.448;10.228;2022-09-09T16:06:13;18.40;6.20
318;DHT22;146;53.448;10.228;2022-09-09T16:08:42;18.40;6.20
318;DHT22;146;53.448;10.228;2022-09-09T16:11:11;18.40;6.20
318;DHT22;146;53.448;10.228;2022-09-09T16:13:42;18.40;6.10
318;DHT22;146;53.448;10.228;2022-09-09T16:16:10;18.40;6.10
318;DHT22;146;53.448;10.228;2022-09-09T16:18:39;18.40;6.20
318;DHT22;146;53.448;10.228;2022-09-09T16:21:06;18.40;6.20
318;DHT22;146;53.448;10.228;2022-09-09T16:23:34;18.50;6.10
318;DHT22;146;53.448;10.228;2022-09-09T16:26:01;18.50;6.20
318;DHT22;146;53.448;10.228;2022-09-09T16:28:29;18.60;5.90
318;DHT22;146;53.448;10.228;2022-09-09T16:30:57;18.50;6.00
318;DHT22;146;53.448;10.228;2022-09-09T16:33:24;18.60;6.10
318;DHT22;146;53.448;10.228;2022-09-09T16:35:52;18.70;6.10
318;DHT22;146;53.448;10.228;2022-09-09T16:38:18;18.70;6.00
318;DHT22;146;53.448;10.228;2022-09-09T16:40:45;18.70;5.90
318;DHT22;146;53.448;10.228;2022-09-09T16:43:15;18.80;5.60
318;DHT22;146;53.448;10.228;2022-09-09T16:45:42;18.70;5.40
318;DHT22;146;53.448;10.228;2022-09-09T16:48:11;18.80;5.10
318;DHT22;146;53.448;10.228;2022-09-09T16:50:38;18.70;5.10
318;DHT22;146;53.448;10.228;2022-09-09T16:53:05;18.70;4.90
318;DHT22;146;53.448;10.228;2022-09-09T16:55:38;18.60;4.60
318;DHT22;146;53.448;10.228;2022-09-09T16:58:06;18.60;4.60
318;DHT22;146;53.448;10.228;2022-09-09T17:00:32;18.50;4.60
318;DHT22;146;53.448;10.228;2022-09-09T17:03:00;18.60;4.60
318;DHT22;146;53.448;10.228;2022-09-09T17:05:29;18.50;4.50